SBULSBGO

Guest
Details From SBUL - TEN CEL AV CESAR BOMBONATO
To SBGO - Santo Genoveva
Flight Number -
Tags generated
Created
Modified
Stats Distance 147 nm / 272 km
Max Altitude 7,100 ft / 2,164 m
Waypoints 4
Social Downloads 1
Likes 0
Share VATSIM

Download

Looking for another format? Having issues loading an existing format? Contact us
Advertisement - Login to hide

Notes

Basic altitude profile: - Ascent Rate: 2500ft/min - Ascent Speed: 250kts - Cruise Altitude: 35000ft - Cruise Speed: 420kts - Descent Rate: 1500ft/min - Descent Speed: 250kts Options: - Use NATs: yes - Use PACOTS: yes - Use low airways: yes - Use high airways: yes

Route

SBUL GUARI W24 GAZAR SBGO

ID Type Via Altitude (ft/m) Position (lat/lon) Dist (leg/tot) Name
O SBUL APT - 0 / 0 -18.88284 / -48.22559 - / 0 nm TEN CEL AV CESAR BOMBONATO
GUARI FIX - 7,100 / 2,164 -18.57883 / -48.36633 19 / 19 nm
GAZAR FIX W24 (AWY-LO) 5,800 / 1,768 -17.04883 / -49.03550 99 / 119 nm
O SBGO APT - 0 / 0 -16.63203 / -49.22069 27 / 146 nm Santo Genoveva

Altitude Profile

Advertisement - Login to hide

SBUL

Details ICAO SBUL (UDI)
Name Uberlandia Airport Ten Cel AV Cesar Bombonato
Region Brazil
Timezone America/Sao_Paulo (UTC-3.0)
Stats Elevation 3,094 ft / 943 m (AMSL)
Location -18.883500° -48.225900°
Runways 1
Magnetic Variation 21.341° W

METAR

Not found

TAF

TAF SBUL 182130Z 1900/1912 10005KT 9999 FEW040TN16/1909Z TX18/1911Z BECMG 1901/1903 12005KT CAVOK BECMG 1906/1908 07005KT RMK PHG

Decode

Departure Runways

ID Width Length Bearing (true/mag) Surface Threshold Overrun Markings Lighting
04 148 ft / 45 m 6,920 ft / 2,109 m 22.57° / 43.91° ASPHALT 0 ft / 0 m 0 ft / 0 m PREC-APP EDGE THRESHOLD
22 148 ft / 45 m 6,920 ft / 2,109 m 202.57° / 223.91° ASPHALT 0 ft / 0 m 0 ft / 0 m PREC-APP EDGE THRESHOLD

SBGO

Details ICAO SBGO (GYN)
Name Goiania, Santa Genoveva
Region Brazil
Timezone America/Sao_Paulo (UTC-3.0)
Stats Elevation 2,451 ft / 747 m (AMSL)
Location -16.631900° -49.221100°
Runways 1
Magnetic Variation 21.069° W

METAR

SBGO 190100Z 14004KT CAVOK 22/15 Q1021

Decode

TAF

TAF SBGO 182200Z 1900/1924 33007KT 9999 SCT035 TN18/1909Z TX31/1918Z PROB30 1900/1903 8000 TSRA SCT035 FEW045CB BECMG 1904/1906 14005KT CAVOK BECMG 1912/1913 10007KT 9999 FEW025 BECMG 1915/1916 03006KT SCT040 BECMG 1918/1920 11008KT FEW040 RMK PEJ

Decode

Destination Runways

ID Width Length Bearing (true/mag) Surface Threshold Overrun Markings Lighting
14 148 ft / 45 m 8,208 ft / 2,502 m 120.42° / 141.49° ASPHALT 715 ft / 218 m 0 ft / 0 m PREC-APP CENTERLINE EDGE THRESHOLD REIL-OMNI
32 148 ft / 45 m 8,208 ft / 2,502 m 300.41° / 321.48° ASPHALT 0 ft / 0 m 0 ft / 0 m PREC-APP CENTERLINE EDGE THRESHOLD REIL-OMNI

Popular Alternatives